sensor_id;sensor_type;location;lat;lon;timestamp;temperature;humidity
11532;DHT22;5822;51.000;5.874;2023-03-02T00:01:40;5.30;99.90
11532;DHT22;5822;51.000;5.874;2023-03-02T00:04:09;5.50;99.90
11532;DHT22;5822;51.000;5.874;2023-03-02T00:06:36;5.50;99.90
11532;DHT22;5822;51.000;5.874;2023-03-02T00:09:03;5.50;99.90
11532;DHT22;5822;51.000;5.874;2023-03-02T00:11:29;5.40;99.90
11532;DHT22;5822;51.000;5.874;2023-03-02T00:13:56;5.30;99.90
11532;DHT22;5822;51.000;5.874;2023-03-02T00:16:22;5.50;99.90
11532;DHT22;5822;51.000;5.874;2023-03-02T00:18:47;5.40;99.90
11532;DHT22;5822;51.000;5.874;2023-03-02T00:21:13;5.40;99.90
11532;DHT22;5822;51.000;5.874;2023-03-02T00:23:38;5.20;99.90
11532;DHT22;5822;51.000;5.874;2023-03-02T00:26:05;5.20;99.90
11532;DHT22;5822;51.000;5.874;2023-03-02T00:28:31;5.20;99.90
11532;DHT22;5822;51.000;5.874;2023-03-02T00:30:57;5.30;99.90
11532;DHT22;5822;51.000;5.874;2023-03-02T00:33:23;5.30;99.90
11532;DHT22;5822;51.000;5.874;2023-03-02T00:35:48;5.10;99.90
11532;DHT22;5822;51.000;5.874;2023-03-02T00:38:14;5.20;99.90
11532;DHT22;5822;51.000;5.874;2023-03-02T00:40:44;5.10;99.90
11532;DHT22;5822;51.000;5.874;2023-03-02T00:43:11;5.20;99.90
11532;DHT22;5822;51.000;5.874;2023-03-02T00:45:37;5.20;99.90
11532;DHT22;5822;51.000;5.874;2023-03-02T00:48:02;5.10;99.90
11532;DHT22;5822;51.000;5.874;2023-03-02T00:50:28;5.10;99.90
11532;DHT22;5822;51.000;5.874;2023-03-02T00:52:54;4.90;99.90
11532;DHT22;5822;51.000;5.874;2023-03-02T00:55:19;4.80;99.90
11532;DHT22;5822;51.000;5.874;2023-03-02T00:57:45;4.80;99.90
11532;DHT22;5822;51.000;5.874;2023-03-02T01:00:20;4.80;99.90
11532;DHT22;5822;51.000;5.874;2023-03-02T01:02:47;4.80;99.90
11532;DHT22;5822;51.000;5.874;2023-03-02T01:05:13;4.70;99.90
11532;DHT22;5822;51.000;5.874;2023-03-02T01:07:39;4.60;99.90
11532;DHT22;5822;51.000;5.874;2023-03-02T01:10:05;4.60;99.90
11532;DHT22;5822;51.000;5.874;2023-03-02T01:12:31;4.50;99.90
11532;DHT22;5822;51.000;5.874;2023-03-02T01:14:57;4.60;99.90
11532;DHT22;5822;51.000;5.874;2023-03-02T01:17:23;4.70;99.90
11532;DHT22;5822;51.000;5.874;2023-03-02T01:19:50;4.60;99.90
11532;DHT22;5822;51.000;5.874;2023-03-02T01:22:17;4.90;99.90
11532;DHT22;5822;51.000;5.874;2023-03-02T01:24:43;4.90;99.90
11532;DHT22;5822;51.000;5.874;2023-03-02T01:27:09;4.90;99.90
11532;DHT22;5822;51.000;5.874;2023-03-02T01:29:34;4.90;99.90
11532;DHT22;5822;51.000;5.874;2023-03-02T01:32:01;4.90;99.90
11532;DHT22;5822;51.000;5.874;2023-03-02T01:34:27;4.80;99.90
11532;DHT22;5822;51.000;5.874;2023-03-02T01:36:52;4.80;99.90
11532;DHT22;5822;51.000;5.874;2023-03-02T01:39:18;4.90;99.90
11532;DHT22;5822;51.000;5.874;2023-03-02T01:41:48;4.90;99.90
11532;DHT22;5822;51.000;5.874;2023-03-02T01:44:50;4.90;99.90
11532;DHT22;5822;51.000;5.874;2023-03-02T01:47:25;4.80;99.90
11532;DHT22;5822;51.000;5.874;2023-03-02T01:49:59;4.80;99.90
11532;DHT22;5822;51.000;5.874;2023-03-02T01:52:26;4.60;99.90
11532;DHT22;5822;51.000;5.874;2023-03-02T01:54:56;4.60;99.90
11532;DHT22;5822;51.000;5.874;2023-03-02T01:57:27;4.70;99.90
11532;DHT22;5822;51.000;5.874;2023-03-02T02:00:00;4.70;99.90
11532;DHT22;5822;51.000;5.874;2023-03-02T02:02:26;4.70;99.90
11532;DHT22;5822;51.000;5.874;2023-03-02T02:04:53;4.60;99.90
11532;DHT22;5822;51.000;5.874;2023-03-02T02:07:20;4.50;99.90
11532;DHT22;5822;51.000;5.874;2023-03-02T02:09:48;4.50;99.90
11532;DHT22;5822;51.000;5.874;2023-03-02T02:12:18;4.40;99.90
11532;DHT22;5822;51.000;5.874;2023-03-02T02:14:45;4.30;99.90
11532;DHT22;5822;51.000;5.874;2023-03-02T02:17:11;4.30;99.90
11532;DHT22;5822;51.000;5.874;2023-03-02T02:19:44;4.30;99.90
11532;DHT22;5822;51.000;5.874;2023-03-02T02:22:14;4.20;99.90
11532;DHT22;5822;51.000;5.874;2023-03-02T02:24:45;4.20;99.90
11532;DHT22;5822;51.000;5.874;2023-03-02T02:27:14;4.20;99.90
11532;DHT22;5822;51.000;5.874;2023-03-02T02:29:46;4.30;99.90
11532;DHT22;5822;51.000;5.874;2023-03-02T02:32:17;4.30;99.90
11532;DHT22;5822;51.000;5.874;2023-03-02T02:34:50;4.30;99.90
11532;DHT22;5822;51.000;5.874;2023-03-02T02:37:34;4.20;99.90
11532;DHT22;5822;51.000;5.874;2023-03-02T02:40:04;4.20;99.90
11532;DHT22;5822;51.000;5.874;2023-03-02T02:42:41;4.10;99.90
11532;DHT22;5822;51.000;5.874;2023-03-02T02:45:21;4.10;99.90
11532;DHT22;5822;51.000;5.874;2023-03-02T02:47:48;4.00;99.90
11532;DHT22;5822;51.000;5.874;2023-03-02T02:50:22;4.10;99.90
11532;DHT22;5822;51.000;5.874;2023-03-02T02:52:54;4.20;99.90
11532;DHT22;5822;51.000;5.874;2023-03-02T02:55:22;4.30;99.90
11532;DHT22;5822;51.000;5.874;2023-03-02T02:57:51;4.30;99.90
11532;DHT22;5822;51.000;5.874;2023-03-02T03:00:19;4.30;99.90
11532;DHT22;5822;51.000;5.874;2023-03-02T03:03:02;4.20;99.90
11532;DHT22;5822;51.000;5.874;2023-03-02T03:05:29;4.00;99.90
11532;DHT22;5822;51.000;5.874;2023-03-02T03:08:08;4.10;99.90
11532;DHT22;5822;51.000;5.874;2023-03-02T03:10:37;4.20;99.90
11532;DHT22;5822;51.000;5.874;2023-03-02T03:13:06;4.30;99.90
11532;DHT22;5822;51.000;5.874;2023-03-02T03:15:32;4.30;99.90
11532;DHT22;5822;51.000;5.874;2023-03-02T03:17:59;4.10;99.90
11532;DHT22;5822;51.000;5.874;2023-03-02T03:20:26;4.00;99.90
11532;DHT22;5822;51.000;5.874;2023-03-02T03:22:52;4.00;99.90
11532;DHT22;5822;51.000;5.874;2023-03-02T03:25:19;3.90;99.90
11532;DHT22;5822;51.000;5.874;2023-03-02T03:27:45;3.80;99.90
11532;DHT22;5822;51.000;5.874;2023-03-02T03:30:13;3.80;99.90
11532;DHT22;5822;51.000;5.874;2023-03-02T03:32:40;3.80;99.90
11532;DHT22;5822;51.000;5.874;2023-03-02T03:35:06;3.90;99.90
11532;DHT22;5822;51.000;5.874;2023-03-02T03:37:39;4.10;99.90
11532;DHT22;5822;51.000;5.874;2023-03-02T03:40:07;4.20;99.90
11532;DHT22;5822;51.000;5.874;2023-03-02T03:42:36;4.20;99.90
11532;DHT22;5822;51.000;5.874;2023-03-02T03:45:03;3.90;99.90
11532;DHT22;5822;51.000;5.874;2023-03-02T03:47:28;3.80;99.90
11532;DHT22;5822;51.000;5.874;2023-03-02T03:49:54;3.70;99.90
11532;DHT22;5822;51.000;5.874;2023-03-02T03:52:20;3.60;99.90
11532;DHT22;5822;51.000;5.874;2023-03-02T03:54:58;3.60;99.90
11532;DHT22;5822;51.000;5.874;2023-03-02T03:57:24;3.50;99.90
11532;DHT22;5822;51.000;5.874;2023-03-02T03:59:50;3.60;99.90
11532;DHT22;5822;51.000;5.874;2023-03-02T04:02:16;3.70;99.90
11532;DHT22;5822;51.000;5.874;2023-03-02T04:04:41;3.70;99.90
11532;DHT22;5822;51.000;5.874;2023-03-02T04:07:07;3.80;99.90
11532;DHT22;5822;51.000;5.874;2023-03-02T04:09:33;3.90;99.90
11532;DHT22;5822;51.000;5.874;2023-03-02T04:12:03;4.10;99.90
11532;DHT22;5822;51.000;5.874;2023-03-02T04:14:29;4.10;99.90
11532;DHT22;5822;51.000;5.874;2023-03-02T04:16:55;4.00;99.90
11532;DHT22;5822;51.000;5.874;2023-03-02T04:19:21;3.90;99.90
11532;DHT22;5822;51.000;5.874;2023-03-02T04:21:49;4.00;99.90
11532;DHT22;5822;51.000;5.874;2023-03-02T04:24:17;4.00;99.90
11532;DHT22;5822;51.000;5.874;2023-03-02T04:26:43;3.90;99.90
11532;DHT22;5822;51.000;5.874;2023-03-02T04:29:10;3.80;99.90
11532;DHT22;5822;51.000;5.874;2023-03-02T04:31:36;3.70;99.90
11532;DHT22;5822;51.000;5.874;2023-03-02T04:34:03;3.60;99.90
11532;DHT22;5822;51.000;5.874;2023-03-02T04:36:30;3.50;99.90
11532;DHT22;5822;51.000;5.874;2023-03-02T04:38:56;3.50;99.90
11532;DHT22;5822;51.000;5.874;2023-03-02T04:41:22;3.50;99.90
11532;DHT22;5822;51.000;5.874;2023-03-02T04:43:47;3.50;99.90
11532;DHT22;5822;51.000;5.874;2023-03-02T04:46:15;3.80;99.90
11532;DHT22;5822;51.000;5.874;2023-03-02T04:48:42;4.00;99.90
11532;DHT22;5822;51.000;5.874;2023-03-02T04:51:16;4.00;99.90
11532;DHT22;5822;51.000;5.874;2023-03-02T04:53:43;4.00;99.90
11532;DHT22;5822;51.000;5.874;2023-03-02T04:56:08;4.00;99.90
11532;DHT22;5822;51.000;5.874;2023-03-02T04:58:34;4.10;99.90
11532;DHT22;5822;51.000;5.874;2023-03-02T05:00:59;4.20;99.90
11532;DHT22;5822;51.000;5.874;2023-03-02T05:03:27;3.90;99.90
11532;DHT22;5822;51.000;5.874;2023-03-02T05:05:53;3.80;99.90
11532;DHT22;5822;51.000;5.874;2023-03-02T05:08:18;3.80;99.90
11532;DHT22;5822;51.000;5.874;2023-03-02T05:10:44;3.70;99.90
11532;DHT22;5822;51.000;5.874;2023-03-02T05:13:09;3.80;99.90
11532;DHT22;5822;51.000;5.874;2023-03-02T05:15:39;3.80;99.90
11532;DHT22;5822;51.000;5.874;2023-03-02T05:18:07;3.80;99.90
11532;DHT22;5822;51.000;5.874;2023-03-02T05:20:34;3.70;99.90
11532;DHT22;5822;51.000;5.874;2023-03-02T05:23:02;3.90;99.90
11532;DHT22;5822;51.000;5.874;2023-03-02T05:25:30;3.90;99.90
11532;DHT22;5822;51.000;5.874;2023-03-02T05:27:56;3.70;99.90
11532;DHT22;5822;51.000;5.874;2023-03-02T05:30:23;3.70;99.90
11532;DHT22;5822;51.000;5.874;2023-03-02T05:32:50;3.70;99.90
11532;DHT22;5822;51.000;5.874;2023-03-02T05:35:17;3.60;99.90
11532;DHT22;5822;51.000;5.874;2023-03-02T05:37:43;3.60;99.90
11532;DHT22;5822;51.000;5.874;2023-03-02T05:40:14;3.60;99.90
11532;DHT22;5822;51.000;5.874;2023-03-02T05:42:41;3.60;99.90
11532;DHT22;5822;51.000;5.874;2023-03-02T05:45:08;3.60;99.90
11532;DHT22;5822;51.000;5.874;2023-03-02T05:47:34;3.50;99.90
11532;DHT22;5822;51.000;5.874;2023-03-02T05:49:59;3.50;99.90
11532;DHT22;5822;51.000;5.874;2023-03-02T05:52:25;3.40;99.90
11532;DHT22;5822;51.000;5.874;2023-03-02T05:54:51;3.40;99.90
11532;DHT22;5822;51.000;5.874;2023-03-02T05:57:16;3.40;99.90
11532;DHT22;5822;51.000;5.874;2023-03-02T05:59:42;3.40;99.90
11532;DHT22;5822;51.000;5.874;2023-03-02T06:02:11;3.40;99.90
11532;DHT22;5822;51.000;5.874;2023-03-02T06:04:36;3.40;99.90
11532;DHT22;5822;51.000;5.874;2023-03-02T06:07:10;3.50;99.90
11532;DHT22;5822;51.000;5.874;2023-03-02T06:09:40;3.40;99.90
11532;DHT22;5822;51.000;5.874;2023-03-02T06:12:07;3.40;99.90
11532;DHT22;5822;51.000;5.874;2023-03-02T06:14:34;3.40;99.90
11532;DHT22;5822;51.000;5.874;2023-03-02T06:17:00;3.40;99.90
11532;DHT22;5822;51.000;5.874;2023-03-02T06:19:26;3.30;99.90
11532;DHT22;5822;51.000;5.874;2023-03-02T06:21:51;3.30;99.90
11532;DHT22;5822;51.000;5.874;2023-03-02T06:24:17;3.30;99.90
11532;DHT22;5822;51.000;5.874;2023-03-02T06:26:43;3.50;99.90
11532;DHT22;5822;51.000;5.874;2023-03-02T06:29:09;3.40;99.90
11532;DHT22;5822;51.000;5.874;2023-03-02T06:31:35;3.40;99.90
11532;DHT22;5822;51.000;5.874;2023-03-02T06:34:01;3.30;99.90
11532;DHT22;5822;51.000;5.874;2023-03-02T06:36:27;3.30;99.90
11532;DHT22;5822;51.000;5.874;2023-03-02T06:38:53;3.20;99.90
11532;DHT22;5822;51.000;5.874;2023-03-02T06:41:18;3.20;99.90
11532;DHT22;5822;51.000;5.874;2023-03-02T06:43:44;3.20;99.90
11532;DHT22;5822;51.000;5.874;2023-03-02T06:46:10;3.20;99.90
11532;DHT22;5822;51.000;5.874;2023-03-02T06:48:36;3.30;99.90
11532;DHT22;5822;51.000;5.874;2023-03-02T06:51:02;3.20;99.90
11532;DHT22;5822;51.000;5.874;2023-03-02T06:53:27;3.30;99.90
11532;DHT22;5822;51.000;5.874;2023-03-02T06:55:53;3.30;99.90
11532;DHT22;5822;51.000;5.874;2023-03-02T06:58:19;3.40;99.90
11532;DHT22;5822;51.000;5.874;2023-03-02T07:00:44;3.30;99.90
11532;DHT22;5822;51.000;5.874;2023-03-02T07:03:10;3.30;99.90
11532;DHT22;5822;51.000;5.874;2023-03-02T07:05:36;3.30;99.90
11532;DHT22;5822;51.000;5.874;2023-03-02T07:08:02;3.40;99.90
11532;DHT22;5822;51.000;5.874;2023-03-02T07:10:28;3.30;99.90
11532;DHT22;5822;51.000;5.874;2023-03-02T07:12:53;3.40;99.90
11532;DHT22;5822;51.000;5.874;2023-03-02T07:15:20;3.50;99.90
11532;DHT22;5822;51.000;5.874;2023-03-02T07:17:46;3.60;99.90
11532;DHT22;5822;51.000;5.874;2023-03-02T07:20:14;3.80;99.90
11532;DHT22;5822;51.000;5.874;2023-03-02T07:22:40;3.90;99.90
11532;DHT22;5822;51.000;5.874;2023-03-02T07:25:07;4.00;99.90
11532;DHT22;5822;51.000;5.874;2023-03-02T07:27:33;4.10;99.90
11532;DHT22;5822;51.000;5.874;2023-03-02T07:29:58;4.20;99.90
11532;DHT22;5822;51.000;5.874;2023-03-02T07:32:24;4.30;99.90
11532;DHT22;5822;51.000;5.874;2023-03-02T07:34:50;4.40;99.90
11532;DHT22;5822;51.000;5.874;2023-03-02T07:37:16;4.30;99.90
11532;DHT22;5822;51.000;5.874;2023-03-02T07:39:41;4.20;99.90
11532;DHT22;5822;51.000;5.874;2023-03-02T07:42:07;4.30;99.90
11532;DHT22;5822;51.000;5.874;2023-03-02T07:44:35;4.40;99.90
11532;DHT22;5822;51.000;5.874;2023-03-02T07:47:01;4.50;99.90
11532;DHT22;5822;51.000;5.874;2023-03-02T07:49:27;4.50;99.90
11532;DHT22;5822;51.000;5.874;2023-03-02T07:51:53;4.60;99.90
11532;DHT22;5822;51.000;5.874;2023-03-02T07:54:18;4.70;99.90
11532;DHT22;5822;51.000;5.874;2023-03-02T07:56:44;4.70;99.90
11532;DHT22;5822;51.000;5.874;2023-03-02T07:59:13;4.80;99.90
11532;DHT22;5822;51.000;5.874;2023-03-02T08:01:39;4.90;99.90
11532;DHT22;5822;51.000;5.874;2023-03-02T08:04:05;4.90;99.90
11532;DHT22;5822;51.000;5.874;2023-03-02T08:06:31;4.90;99.90
11532;DHT22;5822;51.000;5.874;2023-03-02T08:08:57;5.00;99.90
11532;DHT22;5822;51.000;5.874;2023-03-02T08:11:24;5.00;99.90
11532;DHT22;5822;51.000;5.874;2023-03-02T08:13:50;5.00;99.90
11532;DHT22;5822;51.000;5.874;2023-03-02T08:16:16;5.00;99.90
11532;DHT22;5822;51.000;5.874;2023-03-02T08:18:42;5.10;99.90
11532;DHT22;5822;51.000;5.874;2023-03-02T08:21:16;5.20;99.90
11532;DHT22;5822;51.000;5.874;2023-03-02T08:23:43;5.10;99.90
11532;DHT22;5822;51.000;5.874;2023-03-02T08:26:09;5.10;99.90
11532;DHT22;5822;51.000;5.874;2023-03-02T08:28:35;5.10;99.90
11532;DHT22;5822;51.000;5.874;2023-03-02T08:31:02;5.10;99.90
11532;DHT22;5822;51.000;5.874;2023-03-02T08:33:28;5.10;99.90
11532;DHT22;5822;51.000;5.874;2023-03-02T08:38:20;5.20;99.90
11532;DHT22;5822;51.000;5.874;2023-03-02T08:40:46;5.10;99.90
11532;DHT22;5822;51.000;5.874;2023-03-02T08:43:12;5.10;99.90
11532;DHT22;5822;51.000;5.874;2023-03-02T08:45:37;5.20;99.90
11532;DHT22;5822;51.000;5.874;2023-03-02T08:48:03;5.20;99.90
11532;DHT22;5822;51.000;5.874;2023-03-02T08:50:28;5.20;99.90
11532;DHT22;5822;51.000;5.874;2023-03-02T08:52:54;5.20;99.90
11532;DHT22;5822;51.000;5.874;2023-03-02T08:55:20;5.30;99.90
11532;DHT22;5822;51.000;5.874;2023-03-02T08:57:45;5.30;99.90
11532;DHT22;5822;51.000;5.874;2023-03-02T09:00:12;5.30;99.90
11532;DHT22;5822;51.000;5.874;2023-03-02T09:02:39;5.30;99.90
11532;DHT22;5822;51.000;5.874;2023-03-02T09:05:05;5.40;99.90
11532;DHT22;5822;51.000;5.874;2023-03-02T09:07:31;5.40;99.90
11532;DHT22;5822;51.000;5.874;2023-03-02T09:09:57;5.50;99.90
11532;DHT22;5822;51.000;5.874;2023-03-02T09:12:22;5.50;99.90
11532;DHT22;5822;51.000;5.874;2023-03-02T09:14:48;5.60;99.90
11532;DHT22;5822;51.000;5.874;2023-03-02T09:17:14;5.60;99.90
11532;DHT22;5822;51.000;5.874;2023-03-02T09:19:40;5.60;99.90
11532;DHT22;5822;51.000;5.874;2023-03-02T09:22:09;5.70;99.90
11532;DHT22;5822;51.000;5.874;2023-03-02T09:24:35;5.70;99.90
11532;DHT22;5822;51.000;5.874;2023-03-02T09:27:02;5.70;99.90
11532;DHT22;5822;51.000;5.874;2023-03-02T09:29:27;5.70;99.90
11532;DHT22;5822;51.000;5.874;2023-03-02T09:31:53;5.70;99.90
11532;DHT22;5822;51.000;5.874;2023-03-02T09:34:19;5.80;99.90
11532;DHT22;5822;51.000;5.874;2023-03-02T09:36:45;5.80;99.90
11532;DHT22;5822;51.000;5.874;2023-03-02T09:39:11;5.90;99.90
11532;DHT22;5822;51.000;5.874;2023-03-02T09:45:18;6.10;99.90
11532;DHT22;5822;51.000;5.874;2023-03-02T09:47:32;6.10;99.90
11532;DHT22;5822;51.000;5.874;2023-03-02T09:50:20;6.10;99.90
11532;DHT22;5822;51.000;5.874;2023-03-02T09:55:28;6.20;99.90
11532;DHT22;5822;51.000;5.874;2023-03-02T09:57:56;6.30;99.90
11532;DHT22;5822;51.000;5.874;2023-03-02T10:00:30;6.30;99.90
11532;DHT22;5822;51.000;5.874;2023-03-02T10:02:59;6.40;99.90
11532;DHT22;5822;51.000;5.874;2023-03-02T10:05:26;6.40;99.90
11532;DHT22;5822;51.000;5.874;2023-03-02T10:07:53;6.40;99.90
11532;DHT22;5822;51.000;5.874;2023-03-02T10:16:04;6.50;99.90
11532;DHT22;5822;51.000;5.874;2023-03-02T10:18:48;6.60;99.90
11532;DHT22;5822;51.000;5.874;2023-03-02T10:21:40;6.70;99.90
11532;DHT22;5822;51.000;5.874;2023-03-02T10:26:47;6.80;99.90
11532;DHT22;5822;51.000;5.874;2023-03-02T10:29:30;6.80;99.90
11532;DHT22;5822;51.000;5.874;2023-03-02T10:32:12;6.90;99.90
11532;DHT22;5822;51.000;5.874;2023-03-02T10:34:39;6.90;99.90
11532;DHT22;5822;51.000;5.874;2023-03-02T10:37:30;6.90;99.90
11532;DHT22;5822;51.000;5.874;2023-03-02T10:39:55;7.00;99.90
11532;DHT22;5822;51.000;5.874;2023-03-02T10:42:33;7.10;99.90
11532;DHT22;5822;51.000;5.874;2023-03-02T10:45:26;7.00;99.90
11532;DHT22;5822;51.000;5.874;2023-03-02T10:48:19;7.00;99.90
11532;DHT22;5822;51.000;5.874;2023-03-02T10:50:55;7.10;99.90
11532;DHT22;5822;51.000;5.874;2023-03-02T10:53:22;7.10;99.90
11532;DHT22;5822;51.000;5.874;2023-03-02T10:55:50;7.20;99.90
11532;DHT22;5822;51.000;5.874;2023-03-02T10:58:29;7.20;99.90
11532;DHT22;5822;51.000;5.874;2023-03-02T11:01:04;7.30;99.90
11532;DHT22;5822;51.000;5.874;2023-03-02T11:03:31;7.30;99.90
11532;DHT22;5822;51.000;5.874;2023-03-02T11:06:09;7.30;99.90
11532;DHT22;5822;51.000;5.874;2023-03-02T11:08:36;7.30;99.90
11532;DHT22;5822;51.000;5.874;2023-03-02T11:11:03;7.30;99.90
11532;DHT22;5822;51.000;5.874;2023-03-02T11:13:34;7.30;99.90
11532;DHT22;5822;51.000;5.874;2023-03-02T11:21:43;7.50;99.90
11532;DHT22;5822;51.000;5.874;2023-03-02T11:24:28;7.50;99.90
11532;DHT22;5822;51.000;5.874;2023-03-02T11:27:05;7.60;99.90
11532;DHT22;5822;51.000;5.874;2023-03-02T11:29:38;7.60;99.90
11532;DHT22;5822;51.000;5.874;2023-03-02T11:32:14;7.70;99.90
11532;DHT22;5822;51.000;5.874;2023-03-02T11:34:48;7.70;99.90
11532;DHT22;5822;51.000;5.874;2023-03-02T11:40:16;7.80;99.90
11532;DHT22;5822;51.000;5.874;2023-03-02T11:42:44;7.90;99.90
11532;DHT22;5822;51.000;5.874;2023-03-02T11:48:05;7.90;99.90
11532;DHT22;5822;51.000;5.874;2023-03-02T11:50:35;7.90;99.90
11532;DHT22;5822;51.000;5.874;2023-03-02T11:53:08;7.90;99.90
11532;DHT22;5822;51.000;5.874;2023-03-02T11:55:44;8.00;99.90
11532;DHT22;5822;51.000;5.874;2023-03-02T11:58:17;8.00;99.90
11532;DHT22;5822;51.000;5.874;2023-03-02T12:00:44;8.00;99.90
11532;DHT22;5822;51.000;5.874;2023-03-02T12:05:40;8.00;99.90
11532;DHT22;5822;51.000;5.874;2023-03-02T12:08:52;8.10;99.90
11532;DHT22;5822;51.000;5.874;2023-03-02T12:10:59;8.20;99.90
11532;DHT22;5822;51.000;5.874;2023-03-02T12:13:37;8.20;99.90
11532;DHT22;5822;51.000;5.874;2023-03-02T12:18:58;8.30;99.90
11532;DHT22;5822;51.000;5.874;2023-03-02T12:21:59;8.30;99.90
11532;DHT22;5822;51.000;5.874;2023-03-02T12:24:35;8.30;99.90
11532;DHT22;5822;51.000;5.874;2023-03-02T12:27:22;8.30;99.90
11532;DHT22;5822;51.000;5.874;2023-03-02T12:30:16;8.30;99.90
11532;DHT22;5822;51.000;5.874;2023-03-02T12:35:40;8.30;99.90
11532;DHT22;5822;51.000;5.874;2023-03-02T12:43:33;8.50;99.90
11532;DHT22;5822;51.000;5.874;2023-03-02T12:51:29;8.50;99.90
11532;DHT22;5822;51.000;5.874;2023-03-02T12:54:03;8.50;99.90
11532;DHT22;5822;51.000;5.874;2023-03-02T12:56:29;8.50;99.90
11532;DHT22;5822;51.000;5.874;2023-03-02T12:58:55;8.60;99.90
11532;DHT22;5822;51.000;5.874;2023-03-02T13:01:27;8.60;99.90
11532;DHT22;5822;51.000;5.874;2023-03-02T13:03:53;8.70;99.90
11532;DHT22;5822;51.000;5.874;2023-03-02T13:06:20;8.70;99.90
11532;DHT22;5822;51.000;5.874;2023-03-02T13:08:50;8.70;99.90
11532;DHT22;5822;51.000;5.874;2023-03-02T13:11:31;8.80;99.90
11532;DHT22;5822;51.000;5.874;2023-03-02T13:13:59;8.80;99.90
11532;DHT22;5822;51.000;5.874;2023-03-02T13:16:27;8.80;99.90
11532;DHT22;5822;51.000;5.874;2023-03-02T13:18:56;8.90;99.90
11532;DHT22;5822;51.000;5.874;2023-03-02T13:21:33;8.90;99.90
11532;DHT22;5822;51.000;5.874;2023-03-02T13:24:02;8.90;99.90
11532;DHT22;5822;51.000;5.874;2023-03-02T13:26:31;8.90;99.90
11532;DHT22;5822;51.000;5.874;2023-03-02T13:29:06;9.00;99.90
11532;DHT22;5822;51.000;5.874;2023-03-02T13:31:33;9.00;99.90
11532;DHT22;5822;51.000;5.874;2023-03-02T13:33:59;9.00;99.90
11532;DHT22;5822;51.000;5.874;2023-03-02T13:36:32;9.00;99.90
11532;DHT22;5822;51.000;5.874;2023-03-02T13:38:59;9.10;99.90
11532;DHT22;5822;51.000;5.874;2023-03-02T13:43:52;9.10;99.90
11532;DHT22;5822;51.000;5.874;2023-03-02T13:51:20;9.20;99.90
11532;DHT22;5822;51.000;5.874;2023-03-02T13:54:00;9.20;99.90
11532;DHT22;5822;51.000;5.874;2023-03-02T13:56:35;9.20;99.90
11532;DHT22;5822;51.000;5.874;2023-03-02T13:59:11;9.30;99.90
11532;DHT22;5822;51.000;5.874;2023-03-02T14:01:37;9.40;99.90
11532;DHT22;5822;51.000;5.874;2023-03-02T14:04:05;9.40;99.90
11532;DHT22;5822;51.000;5.874;2023-03-02T14:06:34;9.50;99.90
11532;DHT22;5822;51.000;5.874;2023-03-02T14:08:59;9.60;99.90
11532;DHT22;5822;51.000;5.874;2023-03-02T14:11:25;9.70;99.90
11532;DHT22;5822;51.000;5.874;2023-03-02T14:13:53;9.70;99.90
11532;DHT22;5822;51.000;5.874;2023-03-02T14:16:20;9.90;99.90
11532;DHT22;5822;51.000;5.874;2023-03-02T14:18:47;9.90;99.90
11532;DHT22;5822;51.000;5.874;2023-03-02T14:21:22;10.00;99.90
11532;DHT22;5822;51.000;5.874;2023-03-02T14:23:49;10.00;99.90
11532;DHT22;5822;51.000;5.874;2023-03-02T14:28:44;10.10;99.90
11532;DHT22;5822;51.000;5.874;2023-03-02T14:31:10;10.20;99.90
11532;DHT22;5822;51.000;5.874;2023-03-02T14:33:36;10.30;99.90
11532;DHT22;5822;51.000;5.874;2023-03-02T14:36:03;10.30;99.90
11532;DHT22;5822;51.000;5.874;2023-03-02T14:38:31;10.40;99.90
11532;DHT22;5822;51.000;5.874;2023-03-02T14:40:57;10.50;99.90
11532;DHT22;5822;51.000;5.874;2023-03-02T14:43:23;10.50;99.90
11532;DHT22;5822;51.000;5.874;2023-03-02T14:45:50;10.60;99.90
11532;DHT22;5822;51.000;5.874;2023-03-02T14:48:16;10.60;99.90
11532;DHT22;5822;51.000;5.874;2023-03-02T14:50:45;10.60;99.90
11532;DHT22;5822;51.000;5.874;2023-03-02T14:53:19;10.70;99.90
11532;DHT22;5822;51.000;5.874;2023-03-02T14:55:47;10.70;99.90
11532;DHT22;5822;51.000;5.874;2023-03-02T14:58:18;10.70;99.90
11532;DHT22;5822;51.000;5.874;2023-03-02T15:00:45;10.80;99.90
11532;DHT22;5822;51.000;5.874;2023-03-02T15:03:17;10.80;99.90
11532;DHT22;5822;51.000;5.874;2023-03-02T15:05:46;10.80;99.90
11532;DHT22;5822;51.000;5.874;2023-03-02T15:08:13;10.80;99.90
11532;DHT22;5822;51.000;5.874;2023-03-02T15:10:40;10.90;99.90
11532;DHT22;5822;51.000;5.874;2023-03-02T15:13:10;10.90;99.90
11532;DHT22;5822;51.000;5.874;2023-03-02T15:15:39;11.00;99.90
11532;DHT22;5822;51.000;5.874;2023-03-02T15:18:05;11.00;99.90
11532;DHT22;5822;51.000;5.874;2023-03-02T15:20:31;11.10;99.90
11532;DHT22;5822;51.000;5.874;2023-03-02T15:22:57;11.10;99.90
11532;DHT22;5822;51.000;5.874;2023-03-02T15:25:23;11.10;99.90
11532;DHT22;5822;51.000;5.874;2023-03-02T15:27:50;11.10;99.90
11532;DHT22;5822;51.000;5.874;2023-03-02T15:30:16;11.10;99.90
11532;DHT22;5822;51.000;5.874;2023-03-02T15:32:42;11.10;99.90
11532;DHT22;5822;51.000;5.874;2023-03-02T15:35:08;11.00;99.90
11532;DHT22;5822;51.000;5.874;2023-03-02T15:37:34;11.00;99.90
11532;DHT22;5822;51.000;5.874;2023-03-02T15:39:59;10.90;99.90
11532;DHT22;5822;51.000;5.874;2023-03-02T15:42:25;10.90;99.90
11532;DHT22;5822;51.000;5.874;2023-03-02T15:44:51;10.80;99.90
11532;DHT22;5822;51.000;5.874;2023-03-02T15:47:16;10.80;99.90
11532;DHT22;5822;51.000;5.874;2023-03-02T15:49:42;10.70;99.90
11532;DHT22;5822;51.000;5.874;2023-03-02T15:52:09;10.70;99.90
11532;DHT22;5822;51.000;5.874;2023-03-02T15:54:35;10.70;99.90
11532;DHT22;5822;51.000;5.874;2023-03-02T15:57:01;10.60;99.90
11532;DHT22;5822;51.000;5.874;2023-03-02T15:59:29;10.60;99.90
11532;DHT22;5822;51.000;5.874;2023-03-02T16:01:55;10.60;99.90
11532;DHT22;5822;51.000;5.874;2023-03-02T16:04:31;10.50;99.90
11532;DHT22;5822;51.000;5.874;2023-03-02T16:06:57;10.50;99.90
11532;DHT22;5822;51.000;5.874;2023-03-02T16:09:24;10.50;99.90
11532;DHT22;5822;51.000;5.874;2023-03-02T16:11:51;10.40;99.90
11532;DHT22;5822;51.000;5.874;2023-03-02T16:14:17;10.40;99.90
11532;DHT22;5822;51.000;5.874;2023-03-02T16:16:43;10.40;99.90
11532;DHT22;5822;51.000;5.874;2023-03-02T16:19:11;10.40;99.90
11532;DHT22;5822;51.000;5.874;2023-03-02T16:21:37;10.40;99.90
11532;DHT22;5822;51.000;5.874;2023-03-02T16:24:04;10.30;99.90
11532;DHT22;5822;51.000;5.874;2023-03-02T16:26:31;10.30;99.90
11532;DHT22;5822;51.000;5.874;2023-03-02T16:28:58;10.30;99.90
11532;DHT22;5822;51.000;5.874;2023-03-02T16:31:25;10.30;99.90
11532;DHT22;5822;51.000;5.874;2023-03-02T16:33:52;10.20;99.90
11532;DHT22;5822;51.000;5.874;2023-03-02T16:36:19;10.20;99.90
11532;DHT22;5822;51.000;5.874;2023-03-02T16:38:44;10.20;99.90
11532;DHT22;5822;51.000;5.874;2023-03-02T16:41:18;10.20;99.90
11532;DHT22;5822;51.000;5.874;2023-03-02T16:43:50;10.20;99.90
11532;DHT22;5822;51.000;5.874;2023-03-02T16:46:17;10.20;99.90
11532;DHT22;5822;51.000;5.874;2023-03-02T16:48:43;10.10;99.90
11532;DHT22;5822;51.000;5.874;2023-03-02T16:51:10;10.10;99.90
11532;DHT22;5822;51.000;5.874;2023-03-02T16:53:35;10.10;99.90
11532;DHT22;5822;51.000;5.874;2023-03-02T16:56:02;10.00;99.90
11532;DHT22;5822;51.000;5.874;2023-03-02T16:58:28;10.00;99.90
11532;DHT22;5822;51.000;5.874;2023-03-02T17:00:54;10.00;99.90
11532;DHT22;5822;51.000;5.874;2023-03-02T17:03:19;10.00;99.90
11532;DHT22;5822;51.000;5.874;2023-03-02T17:05:45;10.00;99.90